sensor_id;sensor_type;location;lat;lon;timestamp;P1;durP1;ratioP1;P2;durP2;ratioP2
35128;SDS011;21301;43.626;10.580;2023-03-01T00:01:24;12.55;;;7.97;;
35128;SDS011;21301;43.626;10.580;2023-03-01T00:03:53;14.35;;;7.45;;
35128;SDS011;21301;43.626;10.580;2023-03-01T00:06:19;18.92;;;8.50;;
35128;SDS011;21301;43.626;10.580;2023-03-01T00:08:45;10.80;;;6.68;;
35128;SDS011;21301;43.626;10.580;2023-03-01T00:11:13;11.73;;;7.07;;
35128;SDS011;21301;43.626;10.580;2023-03-01T00:13:47;13.10;;;7.15;;
35128;SDS011;21301;43.626;10.580;2023-03-01T00:16:15;11.45;;;5.97;;
35128;SDS011;21301;43.626;10.580;2023-03-01T00:18:46;13.60;;;7.63;;
35128;SDS011;21301;43.626;10.580;2023-03-01T00:21:12;13.20;;;6.00;;
35128;SDS011;21301;43.626;10.580;2023-03-01T00:23:38;13.45;;;6.30;;
35128;SDS011;21301;43.626;10.580;2023-03-01T00:26:08;12.15;;;7.18;;
35128;SDS011;21301;43.626;10.580;2023-03-01T00:28:38;12.50;;;6.55;;
35128;SDS011;21301;43.626;10.580;2023-03-01T00:31:05;9.73;;;5.63;;
35128;SDS011;21301;43.626;10.580;2023-03-01T00:33:31;16.40;;;7.00;;
35128;SDS011;21301;43.626;10.580;2023-03-01T00:35:58;13.80;;;7.10;;
35128;SDS011;21301;43.626;10.580;2023-03-01T00:38:24;13.98;;;7.47;;
35128;SDS011;21301;43.626;10.580;2023-03-01T00:40:51;13.38;;;7.28;;
35128;SDS011;21301;43.626;10.580;2023-03-01T00:43:16;14.52;;;8.10;;
35128;SDS011;21301;43.626;10.580;2023-03-01T00:45:42;12.55;;;6.05;;
35128;SDS011;21301;43.626;10.580;2023-03-01T00:48:08;11.93;;;5.88;;
35128;SDS011;21301;43.626;10.580;2023-03-01T00:50:34;11.38;;;6.38;;
35128;SDS011;21301;43.626;10.580;2023-03-01T00:53:01;14.43;;;8.65;;
35128;SDS011;21301;43.626;10.580;2023-03-01T00:55:27;12.50;;;7.13;;
35128;SDS011;21301;43.626;10.580;2023-03-01T00:57:53;14.70;;;6.82;;
35128;SDS011;21301;43.626;10.580;2023-03-01T01:00:19;12.13;;;7.47;;
35128;SDS011;21301;43.626;10.580;2023-03-01T01:02:46;13.98;;;7.72;;
35128;SDS011;21301;43.626;10.580;2023-03-01T01:05:12;14.30;;;7.90;;
35128;SDS011;21301;43.626;10.580;2023-03-01T01:07:38;14.23;;;8.23;;
35128;SDS011;21301;43.626;10.580;2023-03-01T01:10:05;12.55;;;7.30;;
35128;SDS011;21301;43.626;10.580;2023-03-01T01:12:32;12.85;;;6.95;;
35128;SDS011;21301;43.626;10.580;2023-03-01T01:14:58;12.98;;;7.45;;
35128;SDS011;21301;43.626;10.580;2023-03-01T01:17:24;11.10;;;6.57;;
35128;SDS011;21301;43.626;10.580;2023-03-01T01:19:56;13.20;;;6.40;;
35128;SDS011;21301;43.626;10.580;2023-03-01T01:22:22;12.55;;;5.97;;
35128;SDS011;21301;43.626;10.580;2023-03-01T01:24:48;11.68;;;6.50;;
35128;SDS011;21301;43.626;10.580;2023-03-01T01:27:13;11.70;;;5.63;;
35128;SDS011;21301;43.626;10.580;2023-03-01T01:29:39;14.23;;;6.25;;
35128;SDS011;21301;43.626;10.580;2023-03-01T01:32:07;14.82;;;8.68;;
35128;SDS011;21301;43.626;10.580;2023-03-01T01:34:32;16.38;;;7.93;;
35128;SDS011;21301;43.626;10.580;2023-03-01T01:36:58;12.43;;;7.28;;
35128;SDS011;21301;43.626;10.580;2023-03-01T01:39:27;12.10;;;6.50;;
35128;SDS011;21301;43.626;10.580;2023-03-01T01:41:53;14.10;;;7.82;;
35128;SDS011;21301;43.626;10.580;2023-03-01T01:44:21;11.43;;;6.05;;
35128;SDS011;21301;43.626;10.580;2023-03-01T01:47:00;14.43;;;6.60;;
35128;SDS011;21301;43.626;10.580;2023-03-01T01:49:37;15.27;;;7.18;;
35128;SDS011;21301;43.626;10.580;2023-03-01T01:52:15;15.93;;;8.25;;
35128;SDS011;21301;43.626;10.580;2023-03-01T01:57:19;12.73;;;7.28;;
35128;SDS011;21301;43.626;10.580;2023-03-01T01:59:53;13.88;;;7.05;;
35128;SDS011;21301;43.626;10.580;2023-03-01T02:04:48;12.65;;;7.78;;
35128;SDS011;21301;43.626;10.580;2023-03-01T02:07:21;22.98;;;8.80;;
35128;SDS011;21301;43.626;10.580;2023-03-01T02:09:50;13.40;;;8.27;;
35128;SDS011;21301;43.626;10.580;2023-03-01T02:12:18;14.10;;;9.15;;
35128;SDS011;21301;43.626;10.580;2023-03-01T02:14:46;12.80;;;8.27;;
35128;SDS011;21301;43.626;10.580;2023-03-01T02:17:12;12.80;;;7.63;;
35128;SDS011;21301;43.626;10.580;2023-03-01T02:22:35;17.57;;;9.27;;
35128;SDS011;21301;43.626;10.580;2023-03-01T02:25:07;14.68;;;8.40;;
35128;SDS011;21301;43.626;10.580;2023-03-01T02:27:43;15.25;;;8.43;;
35128;SDS011;21301;43.626;10.580;2023-03-01T02:30:13;13.45;;;7.30;;
35128;SDS011;21301;43.626;10.580;2023-03-01T02:32:40;15.13;;;7.95;;
35128;SDS011;21301;43.626;10.580;2023-03-01T02:35:10;15.10;;;6.95;;
35128;SDS011;21301;43.626;10.580;2023-03-01T02:37:39;12.13;;;7.07;;
35128;SDS011;21301;43.626;10.580;2023-03-01T02:40:08;15.27;;;6.32;;
35128;SDS011;21301;43.626;10.580;2023-03-01T02:42:47;14.40;;;6.45;;
35128;SDS011;21301;43.626;10.580;2023-03-01T02:45:17;10.88;;;5.05;;
35128;SDS011;21301;43.626;10.580;2023-03-01T02:47:42;12.30;;;6.85;;
35128;SDS011;21301;43.626;10.580;2023-03-01T02:52:55;12.80;;;6.68;;
35128;SDS011;21301;43.626;10.580;2023-03-01T02:55:29;9.23;;;5.13;;
35128;SDS011;21301;43.626;10.580;2023-03-01T02:57:56;9.80;;;5.30;;
35128;SDS011;21301;43.626;10.580;2023-03-01T03:00:24;10.13;;;5.25;;
35128;SDS011;21301;43.626;10.580;2023-03-01T03:05:24;8.90;;;4.38;;
35128;SDS011;21301;43.626;10.580;2023-03-01T03:07:56;10.35;;;4.38;;
35128;SDS011;21301;43.626;10.580;2023-03-01T03:10:26;8.98;;;4.70;;
35128;SDS011;21301;43.626;10.580;2023-03-01T03:13:12;9.30;;;4.95;;
35128;SDS011;21301;43.626;10.580;2023-03-01T03:15:39;11.02;;;5.32;;
35128;SDS011;21301;43.626;10.580;2023-03-01T03:18:07;9.52;;;4.85;;
35128;SDS011;21301;43.626;10.580;2023-03-01T03:20:35;11.65;;;4.68;;
35128;SDS011;21301;43.626;10.580;2023-03-01T03:23:02;10.55;;;5.97;;
35128;SDS011;21301;43.626;10.580;2023-03-01T03:25:28;10.27;;;5.85;;
35128;SDS011;21301;43.626;10.580;2023-03-01T03:27:54;9.38;;;5.65;;
35128;SDS011;21301;43.626;10.580;2023-03-01T03:30:25;9.20;;;4.50;;
35128;SDS011;21301;43.626;10.580;2023-03-01T03:32:53;12.45;;;5.15;;
35128;SDS011;21301;43.626;10.580;2023-03-01T03:35:26;9.70;;;4.85;;
35128;SDS011;21301;43.626;10.580;2023-03-01T03:38:01;9.45;;;4.82;;
35128;SDS011;21301;43.626;10.580;2023-03-01T03:43:02;11.18;;;6.70;;
35128;SDS011;21301;43.626;10.580;2023-03-01T03:45:29;13.43;;;6.90;;
35128;SDS011;21301;43.626;10.580;2023-03-01T03:47:58;12.85;;;6.40;;
35128;SDS011;21301;43.626;10.580;2023-03-01T03:50:25;16.42;;;6.43;;
35128;SDS011;21301;43.626;10.580;2023-03-01T03:52:51;9.10;;;4.75;;
35128;SDS011;21301;43.626;10.580;2023-03-01T03:55:17;12.57;;;5.55;;
35128;SDS011;21301;43.626;10.580;2023-03-01T03:57:45;10.82;;;5.10;;
35128;SDS011;21301;43.626;10.580;2023-03-01T04:00:19;9.88;;;5.47;;
35128;SDS011;21301;43.626;10.580;2023-03-01T04:02:49;9.20;;;4.85;;
35128;SDS011;21301;43.626;10.580;2023-03-01T04:05:16;8.75;;;5.00;;
35128;SDS011;21301;43.626;10.580;2023-03-01T04:07:44;8.20;;;4.10;;
35128;SDS011;21301;43.626;10.580;2023-03-01T04:10:17;9.80;;;5.50;;
35128;SDS011;21301;43.626;10.580;2023-03-01T04:12:43;8.75;;;4.18;;
35128;SDS011;21301;43.626;10.580;2023-03-01T04:15:10;8.25;;;4.55;;
35128;SDS011;21301;43.626;10.580;2023-03-01T04:17:41;11.02;;;4.95;;
35128;SDS011;21301;43.626;10.580;2023-03-01T04:20:13;9.32;;;4.40;;
35128;SDS011;21301;43.626;10.580;2023-03-01T04:22:50;10.57;;;4.82;;
35128;SDS011;21301;43.626;10.580;2023-03-01T04:25:17;9.48;;;5.03;;
35128;SDS011;21301;43.626;10.580;2023-03-01T04:27:44;11.57;;;5.47;;
35128;SDS011;21301;43.626;10.580;2023-03-01T04:30:09;10.45;;;5.25;;
35128;SDS011;21301;43.626;10.580;2023-03-01T04:32:36;9.13;;;4.47;;
35128;SDS011;21301;43.626;10.580;2023-03-01T04:35:01;7.60;;;4.10;;
35128;SDS011;21301;43.626;10.580;2023-03-01T04:37:27;9.95;;;4.80;;
35128;SDS011;21301;43.626;10.580;2023-03-01T04:39:54;9.07;;;4.28;;
35128;SDS011;21301;43.626;10.580;2023-03-01T04:42:20;7.50;;;4.82;;
35128;SDS011;21301;43.626;10.580;2023-03-01T04:44:46;8.90;;;4.47;;
35128;SDS011;21301;43.626;10.580;2023-03-01T04:47:12;6.20;;;3.35;;
35128;SDS011;21301;43.626;10.580;2023-03-01T04:49:38;5.75;;;3.13;;
35128;SDS011;21301;43.626;10.580;2023-03-01T04:52:04;7.63;;;3.65;;
35128;SDS011;21301;43.626;10.580;2023-03-01T04:54:31;6.03;;;2.60;;
35128;SDS011;21301;43.626;10.580;2023-03-01T04:56:57;7.13;;;3.63;;
35128;SDS011;21301;43.626;10.580;2023-03-01T04:59:23;6.22;;;2.67;;
35128;SDS011;21301;43.626;10.580;2023-03-01T05:01:50;4.82;;;2.08;;
35128;SDS011;21301;43.626;10.580;2023-03-01T05:04:17;6.28;;;2.58;;
35128;SDS011;21301;43.626;10.580;2023-03-01T05:06:43;6.72;;;3.33;;
35128;SDS011;21301;43.626;10.580;2023-03-01T05:09:09;6.53;;;3.47;;
35128;SDS011;21301;43.626;10.580;2023-03-01T05:11:36;5.80;;;2.47;;
35128;SDS011;21301;43.626;10.580;2023-03-01T05:14:03;9.00;;;3.13;;
35128;SDS011;21301;43.626;10.580;2023-03-01T05:16:29;7.53;;;3.22;;
35128;SDS011;21301;43.626;10.580;2023-03-01T05:18:57;5.60;;;2.60;;
35128;SDS011;21301;43.626;10.580;2023-03-01T05:21:23;6.88;;;2.78;;
35128;SDS011;21301;43.626;10.580;2023-03-01T05:23:50;6.97;;;3.50;;
35128;SDS011;21301;43.626;10.580;2023-03-01T05:26:16;5.50;;;3.08;;
35128;SDS011;21301;43.626;10.580;2023-03-01T05:28:44;8.90;;;3.50;;
35128;SDS011;21301;43.626;10.580;2023-03-01T05:31:10;7.85;;;3.22;;
35128;SDS011;21301;43.626;10.580;2023-03-01T05:33:39;6.65;;;2.95;;
35128;SDS011;21301;43.626;10.580;2023-03-01T05:36:06;6.60;;;2.95;;
35128;SDS011;21301;43.626;10.580;2023-03-01T05:38:33;5.25;;;2.70;;
35128;SDS011;21301;43.626;10.580;2023-03-01T05:40:59;6.85;;;2.90;;
35128;SDS011;21301;43.626;10.580;2023-03-01T05:43:25;5.82;;;2.80;;
35128;SDS011;21301;43.626;10.580;2023-03-01T05:45:51;5.60;;;2.40;;
35128;SDS011;21301;43.626;10.580;2023-03-01T05:48:16;5.60;;;2.20;;
35128;SDS011;21301;43.626;10.580;2023-03-01T05:50:44;4.63;;;2.53;;
35128;SDS011;21301;43.626;10.580;2023-03-01T05:53:13;6.13;;;2.70;;
35128;SDS011;21301;43.626;10.580;2023-03-01T05:55:47;6.10;;;2.67;;
35128;SDS011;21301;43.626;10.580;2023-03-01T05:58:15;4.97;;;1.80;;
35128;SDS011;21301;43.626;10.580;2023-03-01T06:00:43;4.97;;;2.08;;
35128;SDS011;21301;43.626;10.580;2023-03-01T06:03:11;5.30;;;2.15;;
35128;SDS011;21301;43.626;10.580;2023-03-01T06:05:38;6.15;;;2.42;;
35128;SDS011;21301;43.626;10.580;2023-03-01T06:08:05;5.43;;;2.25;;
35128;SDS011;21301;43.626;10.580;2023-03-01T06:10:32;5.47;;;2.53;;
35128;SDS011;21301;43.626;10.580;2023-03-01T06:12:58;5.00;;;2.40;;
35128;SDS011;21301;43.626;10.580;2023-03-01T06:15:24;5.47;;;2.53;;
35128;SDS011;21301;43.626;10.580;2023-03-01T06:17:50;6.00;;;2.95;;
35128;SDS011;21301;43.626;10.580;2023-03-01T06:20:18;5.30;;;2.75;;
35128;SDS011;21301;43.626;10.580;2023-03-01T06:22:45;4.55;;;2.22;;
35128;SDS011;21301;43.626;10.580;2023-03-01T06:25:13;5.72;;;3.15;;
35128;SDS011;21301;43.626;10.580;2023-03-01T06:27:40;4.80;;;2.28;;
35128;SDS011;21301;43.626;10.580;2023-03-01T06:30:08;6.25;;;2.67;;
35128;SDS011;21301;43.626;10.580;2023-03-01T06:32:36;5.47;;;2.90;;
35128;SDS011;21301;43.626;10.580;2023-03-01T06:35:03;5.82;;;2.60;;
35128;SDS011;21301;43.626;10.580;2023-03-01T06:37:29;6.03;;;3.17;;
35128;SDS011;21301;43.626;10.580;2023-03-01T06:39:55;6.55;;;3.40;;
35128;SDS011;21301;43.626;10.580;2023-03-01T06:42:21;7.45;;;3.15;;
35128;SDS011;21301;43.626;10.580;2023-03-01T06:44:46;5.53;;;2.72;;
35128;SDS011;21301;43.626;10.580;2023-03-01T06:47:12;5.18;;;2.35;;
35128;SDS011;21301;43.626;10.580;2023-03-01T06:49:38;7.70;;;3.22;;
35128;SDS011;21301;43.626;10.580;2023-03-01T06:52:04;6.03;;;3.20;;
35128;SDS011;21301;43.626;10.580;2023-03-01T06:54:30;5.05;;;2.78;;
35128;SDS011;21301;43.626;10.580;2023-03-01T06:56:55;7.90;;;3.03;;
35128;SDS011;21301;43.626;10.580;2023-03-01T06:59:21;6.18;;;2.83;;
35128;SDS011;21301;43.626;10.580;2023-03-01T07:01:47;5.25;;;2.28;;
35128;SDS011;21301;43.626;10.580;2023-03-01T07:04:13;5.13;;;2.42;;
35128;SDS011;21301;43.626;10.580;2023-03-01T07:06:39;5.97;;;2.70;;
35128;SDS011;21301;43.626;10.580;2023-03-01T07:09:05;8.63;;;2.65;;
35128;SDS011;21301;43.626;10.580;2023-03-01T07:11:31;5.82;;;2.60;;
35128;SDS011;21301;43.626;10.580;2023-03-01T07:13:57;5.38;;;3.03;;
35128;SDS011;21301;43.626;10.580;2023-03-01T07:16:23;4.90;;;2.20;;
35128;SDS011;21301;43.626;10.580;2023-03-01T07:18:49;6.10;;;2.83;;
35128;SDS011;21301;43.626;10.580;2023-03-01T07:21:15;5.93;;;3.35;;
35128;SDS011;21301;43.626;10.580;2023-03-01T07:23:41;7.25;;;3.35;;
35128;SDS011;21301;43.626;10.580;2023-03-01T07:26:07;5.85;;;2.85;;
35128;SDS011;21301;43.626;10.580;2023-03-01T07:28:33;5.13;;;2.58;;
35128;SDS011;21301;43.626;10.580;2023-03-01T07:31:01;4.85;;;2.63;;
35128;SDS011;21301;43.626;10.580;2023-03-01T07:33:28;5.32;;;3.05;;
35128;SDS011;21301;43.626;10.580;2023-03-01T07:36:00;6.35;;;2.90;;
35128;SDS011;21301;43.626;10.580;2023-03-01T07:38:29;6.15;;;3.10;;
35128;SDS011;21301;43.626;10.580;2023-03-01T07:41:02;7.15;;;3.63;;
35128;SDS011;21301;43.626;10.580;2023-03-01T07:43:29;9.80;;;3.65;;
35128;SDS011;21301;43.626;10.580;2023-03-01T07:45:59;5.60;;;3.10;;
35128;SDS011;21301;43.626;10.580;2023-03-01T07:48:28;7.85;;;3.58;;
35128;SDS011;21301;43.626;10.580;2023-03-01T07:50:58;6.05;;;3.30;;
35128;SDS011;21301;43.626;10.580;2023-03-01T07:53:28;8.07;;;3.80;;
35128;SDS011;21301;43.626;10.580;2023-03-01T07:58:40;6.55;;;3.55;;
35128;SDS011;21301;43.626;10.580;2023-03-01T08:01:08;6.15;;;3.38;;
35128;SDS011;21301;43.626;10.580;2023-03-01T08:03:40;4.85;;;2.65;;
35128;SDS011;21301;43.626;10.580;2023-03-01T08:06:08;5.60;;;2.85;;
35128;SDS011;21301;43.626;10.580;2023-03-01T08:08:35;8.35;;;3.40;;
35128;SDS011;21301;43.626;10.580;2023-03-01T08:11:02;6.55;;;3.00;;
35128;SDS011;21301;43.626;10.580;2023-03-01T08:13:30;8.02;;;3.50;;
35128;SDS011;21301;43.626;10.580;2023-03-01T08:16:29;7.68;;;3.83;;
35128;SDS011;21301;43.626;10.580;2023-03-01T08:18:48;5.53;;;2.67;;
35128;SDS011;21301;43.626;10.580;2023-03-01T08:21:15;7.68;;;3.88;;
35128;SDS011;21301;43.626;10.580;2023-03-01T08:23:42;6.22;;;3.50;;
35128;SDS011;21301;43.626;10.580;2023-03-01T08:26:10;8.95;;;3.63;;
35128;SDS011;21301;43.626;10.580;2023-03-01T08:28:37;6.93;;;3.25;;
35128;SDS011;21301;43.626;10.580;2023-03-01T08:31:12;7.22;;;3.88;;
35128;SDS011;21301;43.626;10.580;2023-03-01T08:33:42;8.85;;;4.28;;
35128;SDS011;21301;43.626;10.580;2023-03-01T08:36:08;7.72;;;4.18;;
35128;SDS011;21301;43.626;10.580;2023-03-01T08:38:34;9.07;;;4.90;;
35128;SDS011;21301;43.626;10.580;2023-03-01T08:41:01;8.00;;;3.83;;
35128;SDS011;21301;43.626;10.580;2023-03-01T08:43:28;8.65;;;4.15;;
35128;SDS011;21301;43.626;10.580;2023-03-01T08:45:54;13.43;;;5.95;;
35128;SDS011;21301;43.626;10.580;2023-03-01T08:48:20;10.20;;;5.40;;
35128;SDS011;21301;43.626;10.580;2023-03-01T08:50:46;7.80;;;4.05;;
35128;SDS011;21301;43.626;10.580;2023-03-01T08:53:12;8.63;;;5.15;;
35128;SDS011;21301;43.626;10.580;2023-03-01T08:55:37;12.15;;;5.85;;
35128;SDS011;21301;43.626;10.580;2023-03-01T08:58:03;10.95;;;5.28;;
35128;SDS011;21301;43.626;10.580;2023-03-01T09:00:29;9.45;;;4.78;;
35128;SDS011;21301;43.626;10.580;2023-03-01T09:02:55;9.90;;;4.13;;
35128;SDS011;21301;43.626;10.580;2023-03-01T09:05:21;10.18;;;4.70;;
35128;SDS011;21301;43.626;10.580;2023-03-01T09:07:47;8.27;;;4.70;;
35128;SDS011;21301;43.626;10.580;2023-03-01T09:10:12;7.28;;;3.63;;
35128;SDS011;21301;43.626;10.580;2023-03-01T09:12:38;12.45;;;4.93;;
35128;SDS011;21301;43.626;10.580;2023-03-01T09:15:04;8.10;;;4.10;;
35128;SDS011;21301;43.626;10.580;2023-03-01T09:17:30;8.68;;;4.35;;
35128;SDS011;21301;43.626;10.580;2023-03-01T09:19:56;8.32;;;3.38;;
35128;SDS011;21301;43.626;10.580;2023-03-01T09:22:22;7.38;;;3.60;;
35128;SDS011;21301;43.626;10.580;2023-03-01T09:24:48;8.07;;;3.55;;
35128;SDS011;21301;43.626;10.580;2023-03-01T09:27:13;6.22;;;3.13;;
35128;SDS011;21301;43.626;10.580;2023-03-01T09:29:39;5.55;;;2.80;;
35128;SDS011;21301;43.626;10.580;2023-03-01T09:32:05;7.65;;;2.88;;
35128;SDS011;21301;43.626;10.580;2023-03-01T09:34:33;7.10;;;3.45;;
35128;SDS011;21301;43.626;10.580;2023-03-01T09:37:19;6.88;;;2.70;;
35128;SDS011;21301;43.626;10.580;2023-03-01T09:39:44;8.38;;;3.42;;
35128;SDS011;21301;43.626;10.580;2023-03-01T09:42:10;7.72;;;3.05;;
35128;SDS011;21301;43.626;10.580;2023-03-01T09:44:42;7.75;;;3.85;;
35128;SDS011;21301;43.626;10.580;2023-03-01T09:47:19;8.05;;;3.22;;
35128;SDS011;21301;43.626;10.580;2023-03-01T09:49:58;9.45;;;3.40;;
35128;SDS011;21301;43.626;10.580;2023-03-01T09:55:26;7.10;;;3.72;;
35128;SDS011;21301;43.626;10.580;2023-03-01T09:58:14;5.60;;;3.10;;
35128;SDS011;21301;43.626;10.580;2023-03-01T10:00:43;6.93;;;2.83;;
35128;SDS011;21301;43.626;10.580;2023-03-01T10:05:59;6.38;;;3.10;;
35128;SDS011;21301;43.626;10.580;2023-03-01T10:11:00;9.27;;;4.28;;
35128;SDS011;21301;43.626;10.580;2023-03-01T10:13:34;7.38;;;3.85;;
35128;SDS011;21301;43.626;10.580;2023-03-01T10:16:19;8.00;;;2.90;;
35128;SDS011;21301;43.626;10.580;2023-03-01T10:18:55;6.25;;;3.00;;
35128;SDS011;21301;43.626;10.580;2023-03-01T10:21:26;8.18;;;3.72;;
35128;SDS011;21301;43.626;10.580;2023-03-01T10:23:53;5.90;;;3.10;;
35128;SDS011;21301;43.626;10.580;2023-03-01T10:29:12;7.28;;;3.88;;
35128;SDS011;21301;43.626;10.580;2023-03-01T10:31:43;8.88;;;2.78;;
35128;SDS011;21301;43.626;10.580;2023-03-01T10:34:22;9.00;;;3.13;;
35128;SDS011;21301;43.626;10.580;2023-03-01T10:37:15;7.65;;;3.08;;
35128;SDS011;21301;43.626;10.580;2023-03-01T10:39:54;6.35;;;2.97;;
35128;SDS011;21301;43.626;10.580;2023-03-01T10:42:38;9.30;;;3.70;;
35128;SDS011;21301;43.626;10.580;2023-03-01T10:45:15;9.15;;;4.75;;
35128;SDS011;21301;43.626;10.580;2023-03-01T10:47:44;5.85;;;2.90;;
35128;SDS011;21301;43.626;10.580;2023-03-01T10:50:20;6.05;;;2.40;;
35128;SDS011;21301;43.626;10.580;2023-03-01T10:52:58;6.95;;;2.60;;
35128;SDS011;21301;43.626;10.580;2023-03-01T10:55:36;5.43;;;2.20;;
35128;SDS011;21301;43.626;10.580;2023-03-01T11:00:34;4.43;;;1.92;;
35128;SDS011;21301;43.626;10.580;2023-03-01T11:03:37;2.80;;;1.35;;
35128;SDS011;21301;43.626;10.580;2023-03-01T11:08:44;4.78;;;2.03;;
35128;SDS011;21301;43.626;10.580;2023-03-01T11:14:00;5.60;;;2.10;;
35128;SDS011;21301;43.626;10.580;2023-03-01T11:19:26;3.58;;;1.90;;
35128;SDS011;21301;43.626;10.580;2023-03-01T11:22:00;4.70;;;1.73;;
35128;SDS011;21301;43.626;10.580;2023-03-01T11:24:41;3.47;;;1.67;;
35128;SDS011;21301;43.626;10.580;2023-03-01T11:29:46;4.38;;;1.60;;
35128;SDS011;21301;43.626;10.580;2023-03-01T11:32:29;3.53;;;1.63;;
35128;SDS011;21301;43.626;10.580;2023-03-01T11:35:09;3.92;;;1.65;;
35128;SDS011;21301;43.626;10.580;2023-03-01T11:40:27;3.83;;;1.55;;
35128;SDS011;21301;43.626;10.580;2023-03-01T11:52:02;6.60;;;2.33;;
35128;SDS011;21301;43.626;10.580;2023-03-01T12:05:20;5.93;;;2.92;;
35128;SDS011;21301;43.626;10.580;2023-03-01T12:24:21;10.23;;;4.68;;
35128;SDS011;21301;43.626;10.580;2023-03-01T12:29:54;7.47;;;4.13;;
35128;SDS011;21301;43.626;10.580;2023-03-01T12:38:37;6.00;;;2.63;;
35128;SDS011;21301;43.626;10.580;2023-03-01T12:46:32;4.22;;;2.10;;
35128;SDS011;21301;43.626;10.580;2023-03-01T12:51:50;7.10;;;2.70;;
35128;SDS011;21301;43.626;10.580;2023-03-01T12:54:29;5.88;;;3.10;;
35128;SDS011;21301;43.626;10.580;2023-03-01T12:57:00;5.30;;;2.88;;
35128;SDS011;21301;43.626;10.580;2023-03-01T12:59:40;4.18;;;2.13;;
35128;SDS011;21301;43.626;10.580;2023-03-01T13:02:22;5.22;;;2.78;;
35128;SDS011;21301;43.626;10.580;2023-03-01T13:04:54;4.63;;;2.30;;
35128;SDS011;21301;43.626;10.580;2023-03-01T13:07:47;4.95;;;2.50;;
35128;SDS011;21301;43.626;10.580;2023-03-01T13:10:43;4.45;;;2.22;;
35128;SDS011;21301;43.626;10.580;2023-03-01T13:13:24;5.35;;;2.38;;
35128;SDS011;21301;43.626;10.580;2023-03-01T13:15:51;4.50;;;2.08;;
35128;SDS011;21301;43.626;10.580;2023-03-01T13:20:51;4.40;;;2.13;;
35128;SDS011;21301;43.626;10.580;2023-03-01T13:33:46;10.02;;;5.30;;
35128;SDS011;21301;43.626;10.580;2023-03-01T13:52:41;7.32;;;3.30;;
35128;SDS011;21301;43.626;10.580;2023-03-01T13:55:21;5.53;;;3.17;;
35128;SDS011;21301;43.626;10.580;2023-03-01T13:57:53;4.35;;;2.40;;
35128;SDS011;21301;43.626;10.580;2023-03-01T14:00:33;5.72;;;2.60;;
35128;SDS011;21301;43.626;10.580;2023-03-01T14:03:05;4.50;;;1.77;;
35128;SDS011;21301;43.626;10.580;2023-03-01T14:05:35;5.43;;;2.22;;
35128;SDS011;21301;43.626;10.580;2023-03-01T14:08:02;5.18;;;2.10;;
35128;SDS011;21301;43.626;10.580;2023-03-01T14:10:35;7.32;;;2.38;;
35128;SDS011;21301;43.626;10.580;2023-03-01T14:13:23;4.53;;;2.53;;
35128;SDS011;21301;43.626;10.580;2023-03-01T14:15:59;5.32;;;2.10;;
35128;SDS011;21301;43.626;10.580;2023-03-01T14:18:40;4.03;;;2.05;;
35128;SDS011;21301;43.626;10.580;2023-03-01T14:21:17;4.57;;;2.42;;
35128;SDS011;21301;43.626;10.580;2023-03-01T14:23:43;4.22;;;2.25;;
35128;SDS011;21301;43.626;10.580;2023-03-01T14:26:09;5.70;;;2.28;;
35128;SDS011;21301;43.626;10.580;2023-03-01T14:28:37;4.00;;;2.10;;
35128;SDS011;21301;43.626;10.580;2023-03-01T14:31:29;5.20;;;2.45;;
35128;SDS011;21301;43.626;10.580;2023-03-01T14:33:56;4.68;;;2.60;;
35128;SDS011;21301;43.626;10.580;2023-03-01T14:36:27;6.90;;;3.72;;
35128;SDS011;21301;43.626;10.580;2023-03-01T14:38:54;5.50;;;2.85;;
35128;SDS011;21301;43.626;10.580;2023-03-01T14:41:24;6.28;;;3.47;;
35128;SDS011;21301;43.626;10.580;2023-03-01T14:43:55;4.60;;;2.58;;
35128;SDS011;21301;43.626;10.580;2023-03-01T14:46:38;6.57;;;3.28;;
35128;SDS011;21301;43.626;10.580;2023-03-01T14:51:41;5.55;;;2.83;;
35128;SDS011;21301;43.626;10.580;2023-03-01T14:56:49;5.65;;;2.92;;
35128;SDS011;21301;43.626;10.580;2023-03-01T14:59:18;9.95;;;3.25;;
35128;SDS011;21301;43.626;10.580;2023-03-01T15:01:48;5.55;;;2.97;;
35128;SDS011;21301;43.626;10.580;2023-03-01T15:04:16;7.80;;;3.65;;
35128;SDS011;21301;43.626;10.580;2023-03-01T15:06:43;7.30;;;3.33;;
35128;SDS011;21301;43.626;10.580;2023-03-01T15:09:13;6.15;;;2.95;;
35128;SDS011;21301;43.626;10.580;2023-03-01T15:11:43;5.93;;;3.00;;
35128;SDS011;21301;43.626;10.580;2023-03-01T15:14:26;6.63;;;3.13;;
35128;SDS011;21301;43.626;10.580;2023-03-01T15:20:07;5.13;;;2.80;;
35128;SDS011;21301;43.626;10.580;2023-03-01T15:22:45;5.47;;;2.42;;
35128;SDS011;21301;43.626;10.580;2023-03-01T15:25:14;4.32;;;2.33;;
35128;SDS011;21301;43.626;10.580;2023-03-01T15:27:44;7.43;;;3.58;;
35128;SDS011;21301;43.626;10.580;2023-03-01T15:30:19;7.68;;;2.90;;
35128;SDS011;21301;43.626;10.580;2023-03-01T15:35:44;7.22;;;3.08;;
35128;SDS011;21301;43.626;10.580;2023-03-01T15:40:52;5.18;;;3.03;;
35128;SDS011;21301;43.626;10.580;2023-03-01T15:49:03;6.13;;;3.45;;
35128;SDS011;21301;43.626;10.580;2023-03-01T15:51:46;5.88;;;3.58;;
35128;SDS011;21301;43.626;10.580;2023-03-01T15:54:23;11.77;;;5.07;;
35128;SDS011;21301;43.626;10.580;2023-03-01T15:56:51;10.43;;;4.15;;
35128;SDS011;21301;43.626;10.580;2023-03-01T15:59:16;5.47;;;2.88;;
35128;SDS011;21301;43.626;10.580;2023-03-01T16:01:43;7.07;;;3.78;;
35128;SDS011;21301;43.626;10.580;2023-03-01T16:04:10;10.32;;;3.50;;
35128;SDS011;21301;43.626;10.580;2023-03-01T16:06:41;6.57;;;2.67;;
35128;SDS011;21301;43.626;10.580;2023-03-01T16:09:07;7.45;;;3.33;;
35128;SDS011;21301;43.626;10.580;2023-03-01T16:11:34;6.68;;;3.80;;
35128;SDS011;21301;43.626;10.580;2023-03-01T16:14:02;8.75;;;4.72;;
35128;SDS011;21301;43.626;10.580;2023-03-01T16:16:28;9.60;;;5.82;;
35128;SDS011;21301;43.626;10.580;2023-03-01T16:18:55;8.02;;;5.13;;
35128;SDS011;21301;43.626;10.580;2023-03-01T16:21:22;10.13;;;6.25;;
35128;SDS011;21301;43.626;10.580;2023-03-01T16:23:50;9.13;;;5.35;;
35128;SDS011;21301;43.626;10.580;2023-03-01T16:26:16;7.45;;;4.15;;
35128;SDS011;21301;43.626;10.580;2023-03-01T16:28:43;8.05;;;4.53;;
35128;SDS011;21301;43.626;10.580;2023-03-01T16:31:10;6.13;;;3.92;;
35128;SDS011;21301;43.626;10.580;2023-03-01T16:33:36;5.55;;;3.47;;
35128;SDS011;21301;43.626;10.580;2023-03-01T16:36:06;6.25;;;3.75;;
35128;SDS011;21301;43.626;10.580;2023-03-01T16:38:34;7.85;;;4.05;;
35128;SDS011;21301;43.626;10.580;2023-03-01T16:41:00;7.13;;;3.67;;
35128;SDS011;21301;43.626;10.580;2023-03-01T16:43:26;11.85;;;6.43;;
35128;SDS011;21301;43.626;10.580;2023-03-01T16:45:52;11.82;;;6.07;;
35128;SDS011;21301;43.626;10.580;2023-03-01T16:48:18;8.10;;;4.57;;
35128;SDS011;21301;43.626;10.580;2023-03-01T16:50:44;7.40;;;4.05;;
35128;SDS011;21301;43.626;10.580;2023-03-01T16:53:10;7.63;;;4.18;;
35128;SDS011;21301;43.626;10.580;2023-03-01T16:55:36;8.25;;;4.60;;
35128;SDS011;21301;43.626;10.580;2023-03-01T16:58:02;9.75;;;5.05;;
35128;SDS011;21301;43.626;10.580;2023-03-01T17:00:29;7.57;;;4.03;;
35128;SDS011;21301;43.626;10.580;2023-03-01T17:02:55;8.27;;;4.50;;
35128;SDS011;21301;43.626;10.580;2023-03-01T17:05:20;10.30;;;4.63;;
35128;SDS011;21301;43.626;10.580;2023-03-01T17:07:48;13.82;;;5.13;;
35128;SDS011;21301;43.626;10.580;2023-03-01T17:10:14;12.80;;;5.13;;
35128;SDS011;21301;43.626;10.580;2023-03-01T17:12:40;33.30;;;14.82;;